createdAt,value
2023-01-15T00:02:18.127Z,100.00
2023-01-15T00:04:44.600Z,100.00
2023-01-15T00:07:11.016Z,100.00
2023-01-15T00:09:39.730Z,100.00
2023-01-15T00:12:06.145Z,100.00
2023-01-15T00:14:32.706Z,100.00
2023-01-15T00:16:59.109Z,100.00
2023-01-15T00:19:25.505Z,100.00
2023-01-15T00:21:54.368Z,100.00
2023-01-15T00:24:42.064Z,100.00
2023-01-15T00:27:30.345Z,100.00
2023-01-15T00:29:56.747Z,100.00
2023-01-15T00:32:23.393Z,100.00
2023-01-15T00:34:49.907Z,100.00
2023-01-15T00:37:16.263Z,100.00
2023-01-15T00:39:44.964Z,100.00
2023-01-15T00:42:14.212Z,100.00
2023-01-15T00:44:40.615Z,100.00
2023-01-15T00:47:08.998Z,100.00
2023-01-15T00:49:35.457Z,100.00
2023-01-15T00:52:01.870Z,100.00
2023-01-15T00:54:28.409Z,100.00
2023-01-15T00:56:57.433Z,100.00
2023-01-15T00:59:26.415Z,100.00
2023-01-15T01:01:53.095Z,100.00
2023-01-15T01:04:20.577Z,100.00
2023-01-15T01:06:47.068Z,100.00
2023-01-15T01:09:14.798Z,100.00
2023-01-15T01:11:42.167Z,100.00
2023-01-15T01:14:10.650Z,100.00
2023-01-15T01:16:39.208Z,100.00
2023-01-15T01:19:14.969Z,100.00
2023-01-15T01:21:43.067Z,100.00
2023-01-15T01:24:19.455Z,100.00
2023-01-15T01:26:46.653Z,100.00
2023-01-15T01:29:18.173Z,100.00
2023-01-15T01:31:47.275Z,100.00
2023-01-15T01:34:16.556Z,100.00
2023-01-15T01:36:44.117Z,100.00
2023-01-15T01:39:17.705Z,100.00
2023-01-15T01:41:45.369Z,100.00
2023-01-15T01:44:33.823Z,100.00
2023-01-15T01:47:03.373Z,100.00
2023-01-15T01:49:30.928Z,100.00
2023-01-15T01:52:03.122Z,100.00
2023-01-15T01:54:31.935Z,100.00
2023-01-15T01:56:58.996Z,100.00
2023-01-15T01:59:26.853Z,100.00
2023-01-15T02:01:53.958Z,100.00
2023-01-15T02:04:26.420Z,100.00
2023-01-15T02:06:56.453Z,100.00
2023-01-15T02:09:22.837Z,100.00
2023-01-15T02:11:55.809Z,100.00
2023-01-15T02:14:42.056Z,100.00
2023-01-15T02:17:20.610Z,100.00
2023-01-15T02:20:10.087Z,100.00
2023-01-15T02:22:54.722Z,100.00
2023-01-15T02:25:52.982Z,100.00
2023-01-15T02:28:57.122Z,100.00
2023-01-15T02:31:40.549Z,100.00
2023-01-15T02:34:12.187Z,100.00
2023-01-15T02:36:43.541Z,100.00
2023-01-15T02:39:16.844Z,100.00
2023-01-15T02:41:53.004Z,100.00
2023-01-15T02:44:24.820Z,100.00
2023-01-15T02:46:51.856Z,100.00
2023-01-15T02:49:23.357Z,100.00
2023-01-15T02:52:28.125Z,100.00
2023-01-15T02:55:00.776Z,100.00
2023-01-15T02:57:30.510Z,100.00
2023-01-15T03:00:00.932Z,100.00
2023-01-15T03:02:34.810Z,100.00
2023-01-15T03:05:20.871Z,100.00
2023-01-15T03:07:56.660Z,100.00
2023-01-15T03:10:36.106Z,100.00
2023-01-15T03:13:03.839Z,100.00
2023-01-15T03:15:56.858Z,100.00
2023-01-15T03:18:26.771Z,100.00
2023-01-15T03:20:59.119Z,100.00
2023-01-15T03:23:27.369Z,100.00
2023-01-15T03:25:53.797Z,100.00
2023-01-15T03:28:26.049Z,100.00
2023-01-15T03:30:53.043Z,100.00
2023-01-15T03:33:19.822Z,100.00
2023-01-15T03:35:57.571Z,100.00
2023-01-15T03:38:30.687Z,100.00
2023-01-15T03:41:00.238Z,100.00
2023-01-15T03:43:51.661Z,100.00
2023-01-15T03:46:41.429Z,100.00
2023-01-15T03:49:32.450Z,100.00
2023-01-15T03:52:00.683Z,100.00
2023-01-15T03:54:42.388Z,100.00
2023-01-15T03:57:20.425Z,100.00
2023-01-15T03:59:54.548Z,100.00
2023-01-15T04:02:22.864Z,100.00
2023-01-15T04:04:53.617Z,100.00
2023-01-15T04:07:21.084Z,100.00
2023-01-15T04:09:48.598Z,100.00
2023-01-15T04:12:15.117Z,100.00
2023-01-15T04:14:41.712Z,100.00
2023-01-15T04:17:08.737Z,100.00
2023-01-15T04:19:35.358Z,100.00
2023-01-15T04:22:04.430Z,100.00
2023-01-15T04:24:30.860Z,100.00
2023-01-15T04:27:04.937Z,100.00
2023-01-15T04:29:33.519Z,100.00
2023-01-15T04:31:59.999Z,100.00
2023-01-15T04:34:28.108Z,100.00
2023-01-15T04:36:55.570Z,100.00
2023-01-15T04:39:22.361Z,100.00
2023-01-15T04:42:11.200Z,100.00
2023-01-15T04:44:38.428Z,100.00
2023-01-15T04:47:05.336Z,100.00
2023-01-15T04:49:32.265Z,100.00
2023-01-15T04:51:58.783Z,100.00
2023-01-15T04:54:25.244Z,100.00
2023-01-15T04:56:53.845Z,100.00
2023-01-15T04:59:23.012Z,100.00
2023-01-15T05:02:02.981Z,100.00
2023-01-15T05:04:31.169Z,100.00
2023-01-15T05:06:57.599Z,100.00
2023-01-15T05:09:24.010Z,100.00
2023-01-15T05:11:54.199Z,100.00
2023-01-15T05:14:23.473Z,100.00
2023-01-15T05:16:49.923Z,100.00
2023-01-15T05:19:17.680Z,100.00
2023-01-15T05:21:45.384Z,100.00
2023-01-15T05:24:15.641Z,100.00
2023-01-15T05:26:42.704Z,100.00
2023-01-15T05:29:10.960Z,100.00
2023-01-15T05:31:44.989Z,100.00
2023-01-15T05:34:12.609Z,100.00
2023-01-15T05:36:39.403Z,100.00
2023-01-15T05:39:09.754Z,100.00
2023-01-15T05:41:51.469Z,100.00
2023-01-15T05:44:25.253Z,100.00
2023-01-15T05:46:54.558Z,100.00
2023-01-15T05:49:23.948Z,100.00
2023-01-15T05:51:54.233Z,100.00
2023-01-15T05:54:27.554Z,100.00
2023-01-15T05:56:54.289Z,100.00
2023-01-15T05:59:25.541Z,100.00
2023-01-15T06:01:53.035Z,100.00
2023-01-15T06:04:21.485Z,100.00
2023-01-15T06:06:54.675Z,100.00
2023-01-15T06:09:23.141Z,100.00
2023-01-15T06:11:50.058Z,100.00
2023-01-15T06:14:18.317Z,100.00
2023-01-15T06:16:47.285Z,100.00
2023-01-15T06:19:15.977Z,100.00
2023-01-15T06:21:42.924Z,100.00
2023-01-15T06:24:09.739Z,100.00
2023-01-15T06:26:37.966Z,100.00
2023-01-15T06:29:04.354Z,100.00
2023-01-15T06:31:32.468Z,100.00
2023-01-15T06:33:58.888Z,100.00
2023-01-15T06:36:27.297Z,100.00
2023-01-15T06:38:56.048Z,100.00
2023-01-15T06:41:45.013Z,100.00
2023-01-15T06:44:35.744Z,100.00
2023-01-15T06:47:20.735Z,100.00
2023-01-15T06:49:51.576Z,100.00
2023-01-15T06:52:18.071Z,100.00
2023-01-15T06:54:46.005Z,100.00
2023-01-15T06:57:12.467Z,100.00
2023-01-15T06:59:38.884Z,100.00
2023-01-15T07:02:05.613Z,100.00
2023-01-15T07:04:32.262Z,100.00
2023-01-15T07:07:00.937Z,100.00
2023-01-15T07:09:27.864Z,100.00
2023-01-15T07:11:58.040Z,100.00
2023-01-15T07:14:31.484Z,100.00
2023-01-15T07:16:59.190Z,100.00
2023-01-15T07:19:28.386Z,100.00
2023-01-15T07:21:58.339Z,100.00
2023-01-15T07:24:24.822Z,100.00
2023-01-15T07:26:51.413Z,100.00
2023-01-15T07:29:19.235Z,100.00
2023-01-15T07:31:45.887Z,100.00
2023-01-15T07:34:14.646Z,100.00
2023-01-15T07:36:41.149Z,100.00
2023-01-15T07:39:12.969Z,100.00
2023-01-15T07:41:58.157Z,100.00
2023-01-15T07:44:43.462Z,100.00
2023-01-15T07:47:40.502Z,100.00
2023-01-15T07:50:10.998Z,100.00
2023-01-15T07:52:39.986Z,100.00
2023-01-15T07:55:10.231Z,100.00
2023-01-15T07:57:40.282Z,100.00
2023-01-15T08:00:10.118Z,100.00
2023-01-15T08:02:36.660Z,100.00
2023-01-15T08:05:05.592Z,100.00
2023-01-15T08:07:38.573Z,100.00
2023-01-15T08:10:08.223Z,100.00
2023-01-15T08:12:53.429Z,100.00
2023-01-15T08:15:20.408Z,100.00
2023-01-15T08:17:48.938Z,100.00
2023-01-15T08:20:22.539Z,100.00
2023-01-15T08:22:49.384Z,100.00
2023-01-15T08:25:18.855Z,100.00
2023-01-15T08:27:46.313Z,100.00
2023-01-15T08:30:18.631Z,100.00
2023-01-15T08:32:45.366Z,100.00
2023-01-15T08:35:14.475Z,100.00
2023-01-15T08:37:44.463Z,100.00
2023-01-15T08:40:12.197Z,100.00
2023-01-15T08:42:39.167Z,100.00
2023-01-15T08:45:06.268Z,100.00
2023-01-15T08:47:32.737Z,100.00
2023-01-15T08:50:00.058Z,100.00
2023-01-15T08:52:29.041Z,100.00
2023-01-15T08:54:55.401Z,100.00
2023-01-15T08:57:25.353Z,100.00
2023-01-15T08:59:51.738Z,100.00
2023-01-15T09:02:18.323Z,100.00
2023-01-15T09:04:46.995Z,100.00
2023-01-15T09:07:13.574Z,100.00
2023-01-15T09:09:40.190Z,100.00
2023-01-15T09:12:06.855Z,100.00
2023-01-15T09:14:57.655Z,100.00
2023-01-15T09:17:27.852Z,100.00
2023-01-15T09:19:54.287Z,100.00
2023-01-15T09:22:20.727Z,100.00
2023-01-15T09:24:48.711Z,100.00
2023-01-15T09:27:15.094Z,100.00
2023-01-15T09:29:44.021Z,100.00
2023-01-15T09:32:11.814Z,100.00
2023-01-15T09:34:38.246Z,100.00
2023-01-15T09:37:04.729Z,100.00
2023-01-15T09:39:31.714Z,100.00
2023-01-15T09:42:13.342Z,100.00
2023-01-15T09:44:48.797Z,100.00
2023-01-15T09:47:26.072Z,100.00
2023-01-15T09:50:15.105Z,100.00
2023-01-15T09:52:50.643Z,100.00
2023-01-15T09:55:31.714Z,100.00
2023-01-15T09:58:01.541Z,100.00
2023-01-15T10:00:43.360Z,100.00
2023-01-15T10:03:32.903Z,100.00
2023-01-15T10:06:26.389Z,100.00
2023-01-15T10:09:04.689Z,100.00
2023-01-15T10:12:01.161Z,100.00
2023-01-15T10:14:59.092Z,100.00
2023-01-15T10:17:43.646Z,100.00
2023-01-15T10:20:26.541Z,100.00
2023-01-15T10:23:35.695Z,100.00
2023-01-15T10:26:18.440Z,100.00
2023-01-15T10:29:20.544Z,100.00
2023-01-15T10:31:54.403Z,100.00
2023-01-15T10:34:45.790Z,100.00
2023-01-15T10:37:18.323Z,100.00
2023-01-15T10:39:51.122Z,100.00
2023-01-15T10:42:20.685Z,99.87
2023-01-15T10:45:11.099Z,100.00
2023-01-15T10:47:39.157Z,100.00
2023-01-15T10:50:21.165Z,100.00
2023-01-15T10:52:57.151Z,100.00
2023-01-15T10:55:38.188Z,99.60
2023-01-15T10:58:19.524Z,99.89
2023-01-15T11:00:53.788Z,97.33
2023-01-15T11:03:28.617Z,97.48
2023-01-15T11:05:55.067Z,98.05
2023-01-15T11:12:00.618Z,96.94
2023-01-15T11:15:02.939Z,95.82
2023-01-15T11:17:56.544Z,95.34
2023-01-15T11:20:31.118Z,94.68
2023-01-15T11:23:10.020Z,96.04
2023-01-15T11:25:44.685Z,94.45
2023-01-15T11:28:17.169Z,94.93
2023-01-15T11:30:52.846Z,94.45
2023-01-15T11:33:33.227Z,96.18
2023-01-15T11:36:21.751Z,94.09
2023-01-15T11:38:51.206Z,95.23
2023-01-15T11:41:56.270Z,94.29
2023-01-15T11:44:43.913Z,95.16
2023-01-15T11:47:35.841Z,93.84
2023-01-15T11:50:21.498Z,94.10
2023-01-15T11:52:53.379Z,94.63
2023-01-15T11:55:22.726Z,94.54
2023-01-15T11:57:51.068Z,93.95
2023-01-15T12:00:25.473Z,94.45
2023-01-15T12:03:00.200Z,94.38
2023-01-15T12:05:29.945Z,93.01
2023-01-15T12:08:02.532Z,91.61
2023-01-15T12:10:59.550Z,92.01
2023-01-15T12:13:49.999Z,93.02
2023-01-15T12:16:55.115Z,92.14
2023-01-15T12:19:39.009Z,93.15
2023-01-15T12:22:33.062Z,93.31
2023-01-15T12:25:04.850Z,92.30
2023-01-15T12:28:24.479Z,91.96
2023-01-15T12:31:05.060Z,91.92
2023-01-15T12:33:49.369Z,92.66
2023-01-15T12:36:23.590Z,89.49
2023-01-15T12:38:57.620Z,89.13
2023-01-15T12:41:50.724Z,89.82
2023-01-15T12:44:40.911Z,88.88
2023-01-15T12:47:14.804Z,88.73
2023-01-15T12:49:48.700Z,88.85
2023-01-15T12:52:24.615Z,87.71
2023-01-15T12:55:22.517Z,86.79
2023-01-15T12:57:53.672Z,86.65
2023-01-15T13:00:35.389Z,87.48
2023-01-15T13:03:07.435Z,86.37
2023-01-15T13:05:47.696Z,86.53
2023-01-15T13:08:38.326Z,86.40
2023-01-15T13:11:06.329Z,84.96
2023-01-15T13:13:40.571Z,84.40
2023-01-15T13:16:48.887Z,85.10
2023-01-15T13:19:27.631Z,85.22
2023-01-15T13:21:59.204Z,84.79
2023-01-15T13:24:31.318Z,83.36
2023-01-15T13:27:14.423Z,82.15
2023-01-15T13:30:05.696Z,83.64
2023-01-15T13:32:39.748Z,84.04
2023-01-15T13:35:20.308Z,83.96
2023-01-15T13:37:53.745Z,83.74
2023-01-15T13:40:34.877Z,83.12
2023-01-15T13:43:04.491Z,83.56
2023-01-15T13:45:40.991Z,82.61
2023-01-15T13:48:18.511Z,83.13
2023-01-15T13:50:53.972Z,83.82
2023-01-15T13:53:53.683Z,82.15
2023-01-15T13:56:35.942Z,83.54
2023-01-15T13:59:26.748Z,83.46
2023-01-15T14:01:53.267Z,83.49
2023-01-15T14:04:36.394Z,83.46
2023-01-15T14:07:02.894Z,83.02
2023-01-15T14:09:31.898Z,83.76
2023-01-15T14:12:08.066Z,83.31
2023-01-15T14:14:46.574Z,83.25
2023-01-15T14:17:50.678Z,83.35
2023-01-15T14:20:37.778Z,83.48
2023-01-15T14:23:23.103Z,83.30
2023-01-15T14:26:27.810Z,83.72
2023-01-15T14:29:22.666Z,82.94
2023-01-15T14:31:52.554Z,81.79
2023-01-15T14:34:24.696Z,83.01
2023-01-15T14:37:04.380Z,82.90
2023-01-15T14:39:53.055Z,81.29
2023-01-15T14:42:40.986Z,82.19
2023-01-15T14:45:07.483Z,82.42
2023-01-15T14:47:46.908Z,81.74
2023-01-15T14:50:33.458Z,81.40
2023-01-15T14:53:15.112Z,82.30
2023-01-15T14:55:59.208Z,81.42
2023-01-15T14:58:49.092Z,81.91
2023-01-15T15:01:27.501Z,80.95
2023-01-15T15:03:56.813Z,81.28
2023-01-15T15:06:23.924Z,82.10
2023-01-15T15:08:54.293Z,82.59
2023-01-15T15:11:57.369Z,83.13
2023-01-15T15:14:29.976Z,84.39
2023-01-15T15:17:00.439Z,84.74
2023-01-15T15:19:34.686Z,85.49
2023-01-15T15:22:10.410Z,85.81
2023-01-15T15:24:47.508Z,85.01
2023-01-15T15:27:18.141Z,85.94
2023-01-15T15:29:45.055Z,84.13
2023-01-15T15:32:18.811Z,83.66
2023-01-15T15:34:50.957Z,84.16
2023-01-15T15:37:20.944Z,84.03
2023-01-15T15:39:53.586Z,83.81
2023-01-15T15:42:44.407Z,84.17
2023-01-15T15:45:44.018Z,83.58
2023-01-15T15:48:35.308Z,84.43
2023-01-15T15:51:03.636Z,84.22
2023-01-15T15:53:32.557Z,83.58
2023-01-15T15:56:01.623Z,84.12
2023-01-15T15:58:37.389Z,84.33
2023-01-15T16:01:04.091Z,84.81
2023-01-15T16:03:33.293Z,83.91
2023-01-15T16:06:00.155Z,84.46
2023-01-15T16:08:28.710Z,84.66
2023-01-15T16:11:01.248Z,84.89
2023-01-15T16:13:39.954Z,84.28
2023-01-15T16:16:12.151Z,84.41
2023-01-15T16:18:59.995Z,84.69
2023-01-15T16:21:36.111Z,84.06
2023-01-15T16:24:22.720Z,84.58
2023-01-15T16:26:58.677Z,85.06
2023-01-15T16:29:29.402Z,83.70
2023-01-15T16:31:57.049Z,85.40
2023-01-15T16:34:28.353Z,85.00
2023-01-15T16:36:55.080Z,85.13
2023-01-15T16:39:29.183Z,85.92
2023-01-15T16:41:57.929Z,86.32
2023-01-15T16:44:25.924Z,85.96
2023-01-15T16:47:00.535Z,86.61
2023-01-15T16:49:29.980Z,86.89
2023-01-15T16:52:01.816Z,86.60
2023-01-15T16:54:31.101Z,85.65
2023-01-15T16:57:02.964Z,86.37
2023-01-15T16:59:30.160Z,85.49
2023-01-15T17:02:06.687Z,85.19
2023-01-15T17:04:41.291Z,85.30
2023-01-15T17:07:15.036Z,85.46
2023-01-15T17:10:00.457Z,84.37
2023-01-15T17:12:31.547Z,84.57
2023-01-15T17:15:20.138Z,84.55
2023-01-15T17:17:54.530Z,84.41
2023-01-15T17:20:34.289Z,85.44
2023-01-15T17:23:00.937Z,85.16
2023-01-15T17:25:35.161Z,84.63
2023-01-15T17:28:09.131Z,85.04
2023-01-15T17:30:35.503Z,84.97
2023-01-15T17:33:04.943Z,85.39
2023-01-15T17:35:35.461Z,85.64
2023-01-15T17:38:04.877Z,84.82
2023-01-15T17:40:33.728Z,85.60
2023-01-15T17:43:00.340Z,85.38
2023-01-15T17:45:31.771Z,84.62
2023-01-15T17:47:59.202Z,84.66
2023-01-15T17:50:27.198Z,84.69
2023-01-15T17:52:54.173Z,84.17
2023-01-15T17:55:41.465Z,83.19
2023-01-15T17:58:31.264Z,83.40
2023-01-15T18:01:19.187Z,83.47
2023-01-15T18:04:10.827Z,83.20
2023-01-15T18:06:38.643Z,82.72
2023-01-15T18:09:07.628Z,83.27
2023-01-15T18:11:34.425Z,81.75
2023-01-15T18:14:01.069Z,82.17
2023-01-15T18:16:28.455Z,82.27
2023-01-15T18:18:55.639Z,81.92
2023-01-15T18:21:22.567Z,82.00
2023-01-15T18:23:49.249Z,82.88
2023-01-15T18:26:17.357Z,80.60
2023-01-15T18:28:48.324Z,81.32
2023-01-15T18:31:14.950Z,80.98
2023-01-15T18:33:41.543Z,81.08
2023-01-15T18:36:13.944Z,80.74
2023-01-15T18:38:43.738Z,81.40
2023-01-15T18:41:12.665Z,81.30
2023-01-15T18:43:58.659Z,81.63
2023-01-15T18:46:44.536Z,81.56
2023-01-15T18:49:11.093Z,81.40
2023-01-15T18:51:37.538Z,80.67
2023-01-15T18:54:06.191Z,81.11
2023-01-15T18:56:45.104Z,81.47
2023-01-15T18:59:13.626Z,80.56
2023-01-15T19:01:41.776Z,81.97
2023-01-15T19:04:11.011Z,81.47
2023-01-15T19:06:38.882Z,80.49
2023-01-15T19:09:05.983Z,81.61
2023-01-15T19:11:32.680Z,81.27
2023-01-15T19:14:17.943Z,80.34
2023-01-15T19:17:03.315Z,80.27
2023-01-15T19:19:29.743Z,81.68
2023-01-15T19:22:16.011Z,80.64
2023-01-15T19:24:45.605Z,80.04
2023-01-15T19:27:16.249Z,80.99
2023-01-15T19:29:42.596Z,80.62
2023-01-15T19:32:08.950Z,81.38
2023-01-15T19:34:35.455Z,81.34
2023-01-15T19:37:01.853Z,80.80
2023-01-15T19:39:29.701Z,80.80
2023-01-15T19:42:16.049Z,81.22
2023-01-15T19:45:01.572Z,80.99
2023-01-15T19:47:50.058Z,79.94
2023-01-15T19:50:19.872Z,81.02
2023-01-15T19:52:54.193Z,80.73
2023-01-15T19:55:22.669Z,79.50
2023-01-15T19:58:00.079Z,80.64
2023-01-15T20:00:27.665Z,80.66
2023-01-15T20:02:55.068Z,82.74
2023-01-15T20:05:23.636Z,82.69
2023-01-15T20:07:50.414Z,82.22
2023-01-15T20:10:20.180Z,83.80
2023-01-15T20:13:08.402Z,83.74
2023-01-15T20:15:39.968Z,82.50
2023-01-15T20:18:08.939Z,83.51
2023-01-15T20:20:38.961Z,83.28
2023-01-15T20:23:06.047Z,83.65
2023-01-15T20:25:32.971Z,83.25
2023-01-15T20:28:03.443Z,83.30
2023-01-15T20:30:30.077Z,84.13
2023-01-15T20:32:59.177Z,84.56
2023-01-15T20:35:31.681Z,83.56
2023-01-15T20:37:58.385Z,83.85
2023-01-15T20:40:25.929Z,85.06
2023-01-15T20:43:11.960Z,83.66
2023-01-15T20:45:39.466Z,85.72
2023-01-15T20:48:13.027Z,84.36
2023-01-15T20:51:00.777Z,84.99
2023-01-15T20:53:33.582Z,84.17
2023-01-15T20:56:01.674Z,84.36
2023-01-15T20:58:30.708Z,83.67
2023-01-15T21:01:06.745Z,84.34
2023-01-15T21:03:37.981Z,84.63
2023-01-15T21:06:05.451Z,84.47
2023-01-15T21:08:34.901Z,84.16
2023-01-15T21:11:04.162Z,84.34
2023-01-15T21:13:31.073Z,84.03
2023-01-15T21:16:03.432Z,83.60
2023-01-15T21:18:31.643Z,83.06
2023-01-15T21:20:58.103Z,82.98
2023-01-15T21:23:24.894Z,82.92
2023-01-15T21:25:51.366Z,83.67
2023-01-15T21:28:17.755Z,85.10
2023-01-15T21:30:46.408Z,86.74
2023-01-15T21:33:13.746Z,88.36
2023-01-15T21:35:41.396Z,88.14
2023-01-15T21:38:08.846Z,87.31
2023-01-15T21:40:39.027Z,87.38
2023-01-15T21:43:28.578Z,88.25
2023-01-15T21:46:06.068Z,87.86
2023-01-15T21:48:33.090Z,88.82
2023-01-15T21:51:03.911Z,87.63
2023-01-15T21:53:31.783Z,87.39
2023-01-15T21:55:58.231Z,86.72
2023-01-15T21:58:29.463Z,86.60
2023-01-15T22:00:58.028Z,86.87
2023-01-15T22:03:24.642Z,85.69
2023-01-15T22:05:51.051Z,85.80
2023-01-15T22:08:19.790Z,85.05
2023-01-15T22:10:47.151Z,85.17
2023-01-15T22:13:13.614Z,84.13
2023-01-15T22:15:40.035Z,83.95
2023-01-15T22:18:06.816Z,85.07
2023-01-15T22:20:33.313Z,84.75
2023-01-15T22:23:01.941Z,84.30
2023-01-15T22:25:28.351Z,82.72
2023-01-15T22:27:54.878Z,82.47
2023-01-15T22:30:21.303Z,82.02
2023-01-15T22:32:50.022Z,81.79
2023-01-15T22:35:17.754Z,83.02
2023-01-15T22:37:44.197Z,83.55
2023-01-15T22:40:11.494Z,83.19
2023-01-15T22:42:37.953Z,83.08
2023-01-15T22:45:07.197Z,81.46
2023-01-15T22:47:38.252Z,81.81
2023-01-15T22:50:04.968Z,80.95
2023-01-15T22:52:31.407Z,80.83
2023-01-15T22:54:58.354Z,80.19
2023-01-15T22:57:24.769Z,79.37
2023-01-15T22:59:51.222Z,79.64
2023-01-15T23:02:40.406Z,80.19
2023-01-15T23:05:07.743Z,79.99
2023-01-15T23:07:40.503Z,81.07
2023-01-15T23:10:10.348Z,79.39
2023-01-15T23:12:37.811Z,78.84
2023-01-15T23:15:04.471Z,79.57
2023-01-15T23:17:30.842Z,80.20
2023-01-15T23:19:57.406Z,78.90
2023-01-15T23:22:26.546Z,78.86
2023-01-15T23:24:52.944Z,78.58
2023-01-15T23:27:24.368Z,78.54
2023-01-15T23:29:50.831Z,78.69
2023-01-15T23:32:17.238Z,78.71
2023-01-15T23:34:43.651Z,78.00
2023-01-15T23:37:14.682Z,79.26
2023-01-15T23:39:42.351Z,78.85
2023-01-15T23:42:29.338Z,78.85
2023-01-15T23:45:15.247Z,78.72
2023-01-15T23:47:41.646Z,77.43
2023-01-15T23:50:08.737Z,77.77
2023-01-15T23:52:35.999Z,77.96
2023-01-15T23:55:05.186Z,78.60
2023-01-15T23:57:31.667Z,78.21
2023-01-15T23:59:58.276Z,78.15
